Terminal Aerodrome Forecast
Issued by NWS Sioux Falls, SD

Home | Current Version | Previous Version | Graphics & Text | Print | Product List | Glossary On
Versions: 1 2 3 4 5 6 7 8 9 10 11 12 13 14 15 16 17 18 19 20 21 22 23 24 25 26 27 28 29 30 31 32 33 34 35 36 37 38 39 40 41
000
FTUS43 KFSD 280529
TAFSUX
TAF
KSUX 280529Z 2806/2906 12006KT P6SM SCT015 OVC040
     FM280800 12007KT 3SM SHRA SCT006 BKN010
     FM281000 12007KT 3SM SHRA OVC006
     FM281600 VRB04KT P6SM BKN012
     FM282000 17006KT P6SM SCT015 BKN200=

USA.gov is the U.S. government's official web portal to all federal, state and local government web resources and services.